sensor_id;sensor_type;location;lat;lon;timestamp;P1;durP1;ratioP1;P2;durP2;ratioP2
55218;SDS011;65463;43.864;20.136;2023-03-07T00:00:33;18.33;;;5.43;;
55218;SDS011;65463;43.864;20.136;2023-03-07T00:03:02;15.90;;;5.45;;
55218;SDS011;65463;43.864;20.136;2023-03-07T00:05:28;17.38;;;5.85;;
55218;SDS011;65463;43.864;20.136;2023-03-07T00:07:56;19.60;;;5.53;;
55218;SDS011;65463;43.864;20.136;2023-03-07T00:10:22;13.73;;;4.90;;
55218;SDS011;65463;43.864;20.136;2023-03-07T00:12:48;15.25;;;5.55;;
55218;SDS011;65463;43.864;20.136;2023-03-07T00:15:15;19.27;;;6.07;;
55218;SDS011;65463;43.864;20.136;2023-03-07T00:17:41;16.00;;;5.97;;
55218;SDS011;65463;43.864;20.136;2023-03-07T00:20:08;21.55;;;6.15;;
55218;SDS011;65463;43.864;20.136;2023-03-07T00:22:35;18.23;;;5.60;;
55218;SDS011;65463;43.864;20.136;2023-03-07T00:25:04;19.42;;;5.80;;
55218;SDS011;65463;43.864;20.136;2023-03-07T00:27:31;14.23;;;5.75;;
55218;SDS011;65463;43.864;20.136;2023-03-07T00:29:58;20.13;;;4.90;;
55218;SDS011;65463;43.864;20.136;2023-03-07T00:32:30;15.40;;;5.22;;
55218;SDS011;65463;43.864;20.136;2023-03-07T00:34:56;14.68;;;4.80;;
55218;SDS011;65463;43.864;20.136;2023-03-07T00:37:23;18.95;;;5.38;;
55218;SDS011;65463;43.864;20.136;2023-03-07T00:39:49;12.98;;;4.78;;
55218;SDS011;65463;43.864;20.136;2023-03-07T00:42:15;16.67;;;5.40;;
55218;SDS011;65463;43.864;20.136;2023-03-07T00:44:41;15.20;;;4.85;;
55218;SDS011;65463;43.864;20.136;2023-03-07T00:47:07;16.08;;;4.78;;
55218;SDS011;65463;43.864;20.136;2023-03-07T00:49:33;15.77;;;5.00;;
55218;SDS011;65463;43.864;20.136;2023-03-07T00:52:00;16.98;;;4.53;;
55218;SDS011;65463;43.864;20.136;2023-03-07T00:54:26;14.85;;;5.03;;
55218;SDS011;65463;43.864;20.136;2023-03-07T00:56:52;11.38;;;4.35;;
55218;SDS011;65463;43.864;20.136;2023-03-07T00:59:18;15.52;;;4.50;;
55218;SDS011;65463;43.864;20.136;2023-03-07T01:01:44;11.40;;;4.60;;
55218;SDS011;65463;43.864;20.136;2023-03-07T01:04:11;10.98;;;4.65;;
55218;SDS011;65463;43.864;20.136;2023-03-07T01:06:37;12.88;;;4.72;;
55218;SDS011;65463;43.864;20.136;2023-03-07T01:09:05;17.65;;;5.78;;
55218;SDS011;65463;43.864;20.136;2023-03-07T01:11:31;20.63;;;5.55;;
55218;SDS011;65463;43.864;20.136;2023-03-07T01:13:58;18.75;;;5.45;;
55218;SDS011;65463;43.864;20.136;2023-03-07T01:16:28;12.93;;;4.82;;
55218;SDS011;65463;43.864;20.136;2023-03-07T01:18:58;18.00;;;5.30;;
55218;SDS011;65463;43.864;20.136;2023-03-07T01:21:28;14.70;;;5.90;;
55218;SDS011;65463;43.864;20.136;2023-03-07T01:23:54;17.98;;;4.80;;
55218;SDS011;65463;43.864;20.136;2023-03-07T01:26:22;14.57;;;5.10;;
55218;SDS011;65463;43.864;20.136;2023-03-07T01:28:49;14.93;;;5.15;;
55218;SDS011;65463;43.864;20.136;2023-03-07T01:31:15;15.15;;;4.82;;
55218;SDS011;65463;43.864;20.136;2023-03-07T01:33:46;14.43;;;5.10;;
55218;SDS011;65463;43.864;20.136;2023-03-07T01:36:22;17.80;;;5.28;;
55218;SDS011;65463;43.864;20.136;2023-03-07T01:38:56;13.32;;;5.25;;
55218;SDS011;65463;43.864;20.136;2023-03-07T01:41:23;13.68;;;5.05;;
55218;SDS011;65463;43.864;20.136;2023-03-07T01:43:53;21.00;;;5.20;;
55218;SDS011;65463;43.864;20.136;2023-03-07T01:49:06;18.17;;;4.88;;
55218;SDS011;65463;43.864;20.136;2023-03-07T01:51:35;21.77;;;6.10;;
55218;SDS011;65463;43.864;20.136;2023-03-07T01:54:03;20.75;;;5.30;;
55218;SDS011;65463;43.864;20.136;2023-03-07T01:56:29;16.65;;;5.18;;
55218;SDS011;65463;43.864;20.136;2023-03-07T01:59:00;18.20;;;5.32;;
55218;SDS011;65463;43.864;20.136;2023-03-07T02:01:27;21.35;;;5.80;;
55218;SDS011;65463;43.864;20.136;2023-03-07T02:06:19;16.67;;;4.85;;
55218;SDS011;65463;43.864;20.136;2023-03-07T02:08:47;22.73;;;5.30;;
55218;SDS011;65463;43.864;20.136;2023-03-07T02:11:13;15.65;;;5.65;;
55218;SDS011;65463;43.864;20.136;2023-03-07T02:13:40;13.57;;;5.43;;
55218;SDS011;65463;43.864;20.136;2023-03-07T02:16:07;19.33;;;5.35;;
55218;SDS011;65463;43.864;20.136;2023-03-07T02:18:34;15.80;;;5.38;;
55218;SDS011;65463;43.864;20.136;2023-03-07T02:21:09;16.38;;;5.50;;
55218;SDS011;65463;43.864;20.136;2023-03-07T02:23:52;17.45;;;5.38;;
55218;SDS011;65463;43.864;20.136;2023-03-07T02:28:57;13.95;;;4.47;;
55218;SDS011;65463;43.864;20.136;2023-03-07T02:31:24;16.45;;;5.72;;
55218;SDS011;65463;43.864;20.136;2023-03-07T02:33:50;13.18;;;4.65;;
55218;SDS011;65463;43.864;20.136;2023-03-07T02:36:18;15.70;;;5.32;;
55218;SDS011;65463;43.864;20.136;2023-03-07T02:38:48;15.82;;;5.22;;
55218;SDS011;65463;43.864;20.136;2023-03-07T02:41:15;13.38;;;4.45;;
55218;SDS011;65463;43.864;20.136;2023-03-07T02:43:43;14.13;;;4.75;;
55218;SDS011;65463;43.864;20.136;2023-03-07T02:46:09;11.23;;;4.25;;
55218;SDS011;65463;43.864;20.136;2023-03-07T02:48:35;12.60;;;4.60;;
55218;SDS011;65463;43.864;20.136;2023-03-07T02:51:02;15.63;;;4.57;;
55218;SDS011;65463;43.864;20.136;2023-03-07T02:53:29;9.25;;;4.60;;
55218;SDS011;65463;43.864;20.136;2023-03-07T02:55:55;14.13;;;5.22;;
55218;SDS011;65463;43.864;20.136;2023-03-07T02:58:21;16.13;;;5.93;;
55218;SDS011;65463;43.864;20.136;2023-03-07T03:00:47;14.90;;;5.32;;
55218;SDS011;65463;43.864;20.136;2023-03-07T03:03:13;16.15;;;6.05;;
55218;SDS011;65463;43.864;20.136;2023-03-07T03:05:40;16.02;;;5.03;;
55218;SDS011;65463;43.864;20.136;2023-03-07T03:08:06;18.83;;;5.38;;
55218;SDS011;65463;43.864;20.136;2023-03-07T03:10:32;14.55;;;5.18;;
55218;SDS011;65463;43.864;20.136;2023-03-07T03:12:58;13.90;;;5.43;;
55218;SDS011;65463;43.864;20.136;2023-03-07T03:15:24;15.98;;;5.50;;
55218;SDS011;65463;43.864;20.136;2023-03-07T03:17:54;23.17;;;5.43;;
55218;SDS011;65463;43.864;20.136;2023-03-07T03:20:20;15.35;;;5.30;;
55218;SDS011;65463;43.864;20.136;2023-03-07T03:22:46;19.48;;;5.35;;
55218;SDS011;65463;43.864;20.136;2023-03-07T03:25:13;15.02;;;4.47;;
55218;SDS011;65463;43.864;20.136;2023-03-07T03:27:39;11.80;;;5.30;;
55218;SDS011;65463;43.864;20.136;2023-03-07T03:30:08;13.65;;;5.25;;
55218;SDS011;65463;43.864;20.136;2023-03-07T03:32:38;15.43;;;4.93;;
55218;SDS011;65463;43.864;20.136;2023-03-07T03:35:04;15.52;;;5.40;;
55218;SDS011;65463;43.864;20.136;2023-03-07T03:37:31;18.48;;;5.68;;
55218;SDS011;65463;43.864;20.136;2023-03-07T03:39:57;19.63;;;6.05;;
55218;SDS011;65463;43.864;20.136;2023-03-07T03:42:24;13.60;;;5.40;;
55218;SDS011;65463;43.864;20.136;2023-03-07T03:44:50;13.65;;;4.90;;
55218;SDS011;65463;43.864;20.136;2023-03-07T03:47:16;15.35;;;5.22;;
55218;SDS011;65463;43.864;20.136;2023-03-07T03:49:42;14.23;;;5.00;;
55218;SDS011;65463;43.864;20.136;2023-03-07T03:52:08;10.30;;;4.45;;
55218;SDS011;65463;43.864;20.136;2023-03-07T03:54:35;15.43;;;5.18;;
55218;SDS011;65463;43.864;20.136;2023-03-07T03:57:01;12.85;;;4.95;;
55218;SDS011;65463;43.864;20.136;2023-03-07T03:59:28;16.23;;;5.47;;
55218;SDS011;65463;43.864;20.136;2023-03-07T04:01:55;14.13;;;4.90;;
55218;SDS011;65463;43.864;20.136;2023-03-07T04:04:21;15.95;;;6.25;;
55218;SDS011;65463;43.864;20.136;2023-03-07T04:06:47;12.07;;;5.10;;
55218;SDS011;65463;43.864;20.136;2023-03-07T04:09:13;11.05;;;4.68;;
55218;SDS011;65463;43.864;20.136;2023-03-07T04:11:40;15.45;;;5.35;;
55218;SDS011;65463;43.864;20.136;2023-03-07T04:14:06;14.25;;;5.30;;
55218;SDS011;65463;43.864;20.136;2023-03-07T04:16:32;13.32;;;5.18;;
55218;SDS011;65463;43.864;20.136;2023-03-07T04:18:58;16.33;;;5.30;;
55218;SDS011;65463;43.864;20.136;2023-03-07T04:21:24;13.10;;;5.13;;
55218;SDS011;65463;43.864;20.136;2023-03-07T04:23:50;16.60;;;5.55;;
55218;SDS011;65463;43.864;20.136;2023-03-07T04:26:20;19.48;;;5.60;;
55218;SDS011;65463;43.864;20.136;2023-03-07T04:28:46;14.68;;;5.47;;
55218;SDS011;65463;43.864;20.136;2023-03-07T04:31:16;14.95;;;5.18;;
55218;SDS011;65463;43.864;20.136;2023-03-07T04:33:42;20.27;;;6.70;;
55218;SDS011;65463;43.864;20.136;2023-03-07T04:36:09;18.35;;;6.82;;
55218;SDS011;65463;43.864;20.136;2023-03-07T04:38:36;18.50;;;6.00;;
55218;SDS011;65463;43.864;20.136;2023-03-07T04:41:04;16.15;;;6.70;;
55218;SDS011;65463;43.864;20.136;2023-03-07T04:43:30;20.30;;;6.55;;
55218;SDS011;65463;43.864;20.136;2023-03-07T04:45:56;17.38;;;5.68;;
55218;SDS011;65463;43.864;20.136;2023-03-07T04:48:22;15.55;;;6.10;;
55218;SDS011;65463;43.864;20.136;2023-03-07T04:50:49;13.40;;;5.40;;
55218;SDS011;65463;43.864;20.136;2023-03-07T04:53:16;18.73;;;6.32;;
55218;SDS011;65463;43.864;20.136;2023-03-07T04:55:42;15.60;;;5.90;;
55218;SDS011;65463;43.864;20.136;2023-03-07T04:58:08;13.95;;;5.50;;
55218;SDS011;65463;43.864;20.136;2023-03-07T05:00:43;15.13;;;6.18;;
55218;SDS011;65463;43.864;20.136;2023-03-07T05:03:11;15.80;;;5.30;;
55218;SDS011;65463;43.864;20.136;2023-03-07T05:05:37;16.17;;;6.22;;
55218;SDS011;65463;43.864;20.136;2023-03-07T05:08:04;16.50;;;6.22;;
55218;SDS011;65463;43.864;20.136;2023-03-07T05:10:30;22.35;;;6.63;;
55218;SDS011;65463;43.864;20.136;2023-03-07T05:12:57;14.73;;;5.72;;
55218;SDS011;65463;43.864;20.136;2023-03-07T05:15:25;17.88;;;6.30;;
55218;SDS011;65463;43.864;20.136;2023-03-07T05:17:52;16.33;;;6.70;;
55218;SDS011;65463;43.864;20.136;2023-03-07T05:20:18;28.60;;;10.63;;
55218;SDS011;65463;43.864;20.136;2023-03-07T05:22:44;25.23;;;9.07;;
55218;SDS011;65463;43.864;20.136;2023-03-07T05:25:11;19.15;;;7.97;;
55218;SDS011;65463;43.864;20.136;2023-03-07T05:27:37;22.17;;;7.60;;
55218;SDS011;65463;43.864;20.136;2023-03-07T05:30:03;23.15;;;7.57;;
55218;SDS011;65463;43.864;20.136;2023-03-07T05:32:30;17.45;;;6.90;;
55218;SDS011;65463;43.864;20.136;2023-03-07T05:34:59;21.88;;;8.43;;
55218;SDS011;65463;43.864;20.136;2023-03-07T05:37:25;19.15;;;7.28;;
55218;SDS011;65463;43.864;20.136;2023-03-07T05:39:51;16.15;;;7.30;;
55218;SDS011;65463;43.864;20.136;2023-03-07T05:42:17;18.30;;;6.88;;
55218;SDS011;65463;43.864;20.136;2023-03-07T05:44:44;21.80;;;8.27;;
55218;SDS011;65463;43.864;20.136;2023-03-07T05:47:10;24.98;;;7.72;;
55218;SDS011;65463;43.864;20.136;2023-03-07T05:49:36;18.05;;;8.02;;
55218;SDS011;65463;43.864;20.136;2023-03-07T05:52:05;20.08;;;7.65;;
55218;SDS011;65463;43.864;20.136;2023-03-07T05:54:31;20.25;;;7.72;;
55218;SDS011;65463;43.864;20.136;2023-03-07T05:56:57;23.33;;;7.90;;
55218;SDS011;65463;43.864;20.136;2023-03-07T05:59:23;21.30;;;7.80;;
55218;SDS011;65463;43.864;20.136;2023-03-07T06:01:54;24.13;;;7.85;;
55218;SDS011;65463;43.864;20.136;2023-03-07T06:04:21;18.25;;;6.82;;
55218;SDS011;65463;43.864;20.136;2023-03-07T06:06:47;19.35;;;6.72;;
55218;SDS011;65463;43.864;20.136;2023-03-07T06:09:13;18.73;;;7.40;;
55218;SDS011;65463;43.864;20.136;2023-03-07T06:11:39;22.33;;;8.00;;
55218;SDS011;65463;43.864;20.136;2023-03-07T06:14:06;22.98;;;7.40;;
55218;SDS011;65463;43.864;20.136;2023-03-07T06:16:32;19.63;;;7.70;;
55218;SDS011;65463;43.864;20.136;2023-03-07T06:18:58;22.60;;;7.95;;
55218;SDS011;65463;43.864;20.136;2023-03-07T06:21:24;19.67;;;8.75;;
55218;SDS011;65463;43.864;20.136;2023-03-07T06:23:50;21.52;;;8.48;;
55218;SDS011;65463;43.864;20.136;2023-03-07T06:26:16;21.27;;;7.70;;
55218;SDS011;65463;43.864;20.136;2023-03-07T06:28:43;21.40;;;9.63;;
55218;SDS011;65463;43.864;20.136;2023-03-07T06:31:10;21.80;;;7.97;;
55218;SDS011;65463;43.864;20.136;2023-03-07T06:33:36;18.88;;;8.15;;
55218;SDS011;65463;43.864;20.136;2023-03-07T06:36:06;18.20;;;6.90;;
55218;SDS011;65463;43.864;20.136;2023-03-07T06:38:32;22.90;;;7.47;;
55218;SDS011;65463;43.864;20.136;2023-03-07T06:40:58;19.50;;;6.60;;
55218;SDS011;65463;43.864;20.136;2023-03-07T06:43:24;21.35;;;7.18;;
55218;SDS011;65463;43.864;20.136;2023-03-07T06:45:50;17.13;;;7.13;;
55218;SDS011;65463;43.864;20.136;2023-03-07T06:48:17;20.38;;;8.10;;
55218;SDS011;65463;43.864;20.136;2023-03-07T06:50:43;41.38;;;10.63;;
55218;SDS011;65463;43.864;20.136;2023-03-07T06:53:09;36.03;;;10.65;;
55218;SDS011;65463;43.864;20.136;2023-03-07T06:55:35;25.48;;;8.35;;
55218;SDS011;65463;43.864;20.136;2023-03-07T06:58:02;19.80;;;7.95;;
55218;SDS011;65463;43.864;20.136;2023-03-07T07:00:28;19.63;;;7.47;;
55218;SDS011;65463;43.864;20.136;2023-03-07T07:02:54;19.17;;;7.10;;
55218;SDS011;65463;43.864;20.136;2023-03-07T07:05:20;14.57;;;6.35;;
55218;SDS011;65463;43.864;20.136;2023-03-07T07:07:47;19.90;;;7.32;;
55218;SDS011;65463;43.864;20.136;2023-03-07T07:10:13;21.63;;;7.88;;
55218;SDS011;65463;43.864;20.136;2023-03-07T07:12:39;17.90;;;7.10;;
55218;SDS011;65463;43.864;20.136;2023-03-07T07:15:05;14.98;;;6.63;;
55218;SDS011;65463;43.864;20.136;2023-03-07T07:17:32;16.17;;;6.68;;
55218;SDS011;65463;43.864;20.136;2023-03-07T07:20:03;16.70;;;6.55;;
55218;SDS011;65463;43.864;20.136;2023-03-07T07:22:32;16.20;;;6.38;;
55218;SDS011;65463;43.864;20.136;2023-03-07T07:24:58;18.00;;;6.53;;
55218;SDS011;65463;43.864;20.136;2023-03-07T07:27:24;15.70;;;6.57;;
55218;SDS011;65463;43.864;20.136;2023-03-07T07:29:50;18.58;;;8.07;;
55218;SDS011;65463;43.864;20.136;2023-03-07T07:32:16;25.50;;;9.13;;
55218;SDS011;65463;43.864;20.136;2023-03-07T07:34:42;13.77;;;6.78;;
55218;SDS011;65463;43.864;20.136;2023-03-07T07:37:08;16.95;;;6.55;;
55218;SDS011;65463;43.864;20.136;2023-03-07T07:39:34;14.40;;;6.18;;
55218;SDS011;65463;43.864;20.136;2023-03-07T07:42:00;15.35;;;6.40;;
55218;SDS011;65463;43.864;20.136;2023-03-07T07:44:29;12.52;;;5.82;;
55218;SDS011;65463;43.864;20.136;2023-03-07T07:46:56;15.70;;;6.00;;
55218;SDS011;65463;43.864;20.136;2023-03-07T07:49:23;13.88;;;5.93;;
55218;SDS011;65463;43.864;20.136;2023-03-07T07:51:49;12.38;;;4.70;;
55218;SDS011;65463;43.864;20.136;2023-03-07T07:54:15;11.77;;;5.90;;
55218;SDS011;65463;43.864;20.136;2023-03-07T07:56:41;14.05;;;5.70;;
55218;SDS011;65463;43.864;20.136;2023-03-07T07:59:07;11.88;;;5.53;;
55218;SDS011;65463;43.864;20.136;2023-03-07T08:01:34;14.10;;;5.88;;
55218;SDS011;65463;43.864;20.136;2023-03-07T08:04:00;16.08;;;5.90;;
55218;SDS011;65463;43.864;20.136;2023-03-07T08:06:26;11.70;;;5.30;;
55218;SDS011;65463;43.864;20.136;2023-03-07T08:08:53;15.80;;;5.78;;
55218;SDS011;65463;43.864;20.136;2023-03-07T08:11:20;12.25;;;5.45;;
55218;SDS011;65463;43.864;20.136;2023-03-07T08:13:46;15.35;;;5.82;;
55218;SDS011;65463;43.864;20.136;2023-03-07T08:16:18;13.23;;;5.82;;
55218;SDS011;65463;43.864;20.136;2023-03-07T08:18:48;13.07;;;5.68;;
55218;SDS011;65463;43.864;20.136;2023-03-07T08:21:14;12.68;;;4.85;;
55218;SDS011;65463;43.864;20.136;2023-03-07T08:23:40;13.35;;;5.10;;
55218;SDS011;65463;43.864;20.136;2023-03-07T08:26:07;10.95;;;5.13;;
55218;SDS011;65463;43.864;20.136;2023-03-07T08:28:34;12.98;;;5.07;;
55218;SDS011;65463;43.864;20.136;2023-03-07T08:31:08;13.88;;;5.68;;
55218;SDS011;65463;43.864;20.136;2023-03-07T08:33:35;15.50;;;5.28;;
55218;SDS011;65463;43.864;20.136;2023-03-07T08:36:02;15.10;;;5.50;;
55218;SDS011;65463;43.864;20.136;2023-03-07T08:38:28;12.77;;;5.40;;
55218;SDS011;65463;43.864;20.136;2023-03-07T08:40:58;13.05;;;5.55;;
55218;SDS011;65463;43.864;20.136;2023-03-07T08:43:28;12.63;;;4.97;;
55218;SDS011;65463;43.864;20.136;2023-03-07T08:45:55;11.52;;;5.30;;
55218;SDS011;65463;43.864;20.136;2023-03-07T08:48:22;12.98;;;4.90;;
55218;SDS011;65463;43.864;20.136;2023-03-07T08:50:48;11.60;;;4.53;;
